createdAt,value
2018-08-24T00:00:53.218Z,3.30
2018-08-24T00:01:53.178Z,2.70
2018-08-24T00:02:53.159Z,4.80
2018-08-24T00:03:53.119Z,2.60
2018-08-24T00:04:53.088Z,3.30
2018-08-24T00:05:53.061Z,4.20
2018-08-24T00:06:53.028Z,2.70
2018-08-24T00:07:52.987Z,4.90
2018-08-24T00:08:52.954Z,2.70
2018-08-24T00:09:52.931Z,2.90
2018-08-24T00:10:52.897Z,3.30
2018-08-24T00:11:52.865Z,2.90
2018-08-24T00:12:52.831Z,3.20
2018-08-24T00:13:52.794Z,3.20
2018-08-24T00:14:52.771Z,4.10
2018-08-24T00:15:52.732Z,4.10
2018-08-24T00:16:52.704Z,2.90
2018-08-24T00:17:52.668Z,4.10
2018-08-24T00:18:52.629Z,3.50
2018-08-24T00:19:52.599Z,2.90
2018-08-24T00:20:52.567Z,3.20
2018-08-24T00:21:52.533Z,3.60
2018-08-24T00:22:52.506Z,3.40
2018-08-24T00:23:52.471Z,4.70
2018-08-24T00:24:52.442Z,3.00
2018-08-24T00:25:52.409Z,3.60
2018-08-24T00:26:52.371Z,3.20
2018-08-24T00:27:52.340Z,3.20
2018-08-24T00:28:52.308Z,2.90
2018-08-24T00:29:52.280Z,3.40
2018-08-24T00:30:52.241Z,3.00
2018-08-24T00:31:52.299Z,4.80
2018-08-24T00:32:52.176Z,5.90
2018-08-24T00:33:52.143Z,3.70
2018-08-24T00:34:52.115Z,2.60
2018-08-24T00:35:52.100Z,3.80
2018-08-24T00:36:52.048Z,4.50
2018-08-24T00:37:52.023Z,3.60
2018-08-24T00:38:51.978Z,2.80
2018-08-24T00:39:51.948Z,2.90
2018-08-24T00:40:51.914Z,3.30
2018-08-24T00:41:51.881Z,3.60
2018-08-24T00:42:51.855Z,2.80
2018-08-24T00:43:51.822Z,2.90
2018-08-24T00:44:51.786Z,2.20
2018-08-24T00:45:51.753Z,2.40
2018-08-24T00:46:51.725Z,4.00
2018-08-24T00:47:51.693Z,3.20
2018-08-24T00:48:51.659Z,2.40
2018-08-24T00:49:51.629Z,4.10
2018-08-24T00:50:51.590Z,4.20
2018-08-24T00:51:51.557Z,2.40
2018-08-24T00:52:51.523Z,2.60
2018-08-24T00:53:51.490Z,1.80
2018-08-24T00:54:51.463Z,2.20
2018-08-24T00:55:51.430Z,1.90
2018-08-24T00:56:51.396Z,1.90
2018-08-24T00:57:51.365Z,3.40
2018-08-24T00:58:51.328Z,2.20
2018-08-24T00:59:51.295Z,2.40
2018-08-24T01:00:51.264Z,2.30
2018-08-24T01:01:51.233Z,2.10
2018-08-24T01:02:51.195Z,2.00
2018-08-24T01:03:51.172Z,2.60
2018-08-24T01:04:51.131Z,2.30
2018-08-24T01:05:51.096Z,1.60
2018-08-24T01:06:51.073Z,2.20
2018-08-24T01:07:51.034Z,2.70
2018-08-24T01:08:51.001Z,2.50
2018-08-24T01:09:50.971Z,2.00
2018-08-24T01:10:50.935Z,1.80
2018-08-24T01:11:50.901Z,2.60
2018-08-24T01:12:50.872Z,1.80
2018-08-24T01:13:50.833Z,2.00
2018-08-24T01:14:50.805Z,2.60
2018-08-24T01:15:50.771Z,1.80
2018-08-24T01:16:50.735Z,2.50
2018-08-24T01:17:50.704Z,1.70
2018-08-24T01:18:50.673Z,1.80
2018-08-24T01:19:50.640Z,1.90
2018-08-24T01:20:50.607Z,2.00
2018-08-24T01:21:50.575Z,2.00
2018-08-24T01:22:50.535Z,3.80
2018-08-24T01:23:50.505Z,2.10
2018-08-24T01:24:50.486Z,2.10
2018-08-24T01:25:50.441Z,1.80
2018-08-24T01:26:50.412Z,1.90
2018-08-24T01:27:50.378Z,1.60
2018-08-24T01:28:50.341Z,3.30
2018-08-24T01:29:50.320Z,2.10
2018-08-24T01:30:50.271Z,1.90
2018-08-24T01:31:50.244Z,1.80
2018-08-24T01:32:50.217Z,2.20
2018-08-24T01:33:50.181Z,3.00
2018-08-24T01:34:50.157Z,2.40
2018-08-24T01:35:50.108Z,1.60
2018-08-24T01:36:50.072Z,3.00
2018-08-24T01:37:50.038Z,2.20
2018-08-24T01:38:50.011Z,2.20
2018-08-24T01:39:49.978Z,2.80
2018-08-24T01:40:49.944Z,1.70
2018-08-24T01:41:49.911Z,2.60
2018-08-24T01:42:49.871Z,2.10
2018-08-24T01:43:49.840Z,2.30
2018-08-24T01:44:49.809Z,1.90
2018-08-24T01:45:49.771Z,2.80
2018-08-24T01:46:49.744Z,2.70
2018-08-24T01:47:49.709Z,2.60
2018-08-24T01:48:49.675Z,2.00
2018-08-24T01:49:49.638Z,2.20
2018-08-24T01:50:49.614Z,2.00
2018-08-24T01:51:49.574Z,2.10
2018-08-24T01:52:49.543Z,2.00
2018-08-24T01:53:49.512Z,1.80
2018-08-24T01:54:49.470Z,2.00
2018-08-24T01:55:49.438Z,2.90
2018-08-24T01:56:49.404Z,2.20
2018-08-24T01:57:49.371Z,2.90
2018-08-24T01:58:49.342Z,1.80
2018-08-24T01:59:49.307Z,2.00
2018-08-24T02:00:49.274Z,3.30
2018-08-24T02:01:49.241Z,2.10
2018-08-24T02:02:49.202Z,3.20
2018-08-24T02:03:49.171Z,2.10
2018-08-24T02:04:49.140Z,2.30
2018-08-24T02:05:49.108Z,2.50
2018-08-24T02:06:49.071Z,3.40
2018-08-24T02:07:49.040Z,2.70
2018-08-24T02:08:49.007Z,1.80
2018-08-24T02:09:48.969Z,2.80
2018-08-24T02:10:48.941Z,2.60
2018-08-24T02:11:48.908Z,2.00
2018-08-24T02:12:48.867Z,2.30
2018-08-24T02:13:48.831Z,2.30
2018-08-24T02:14:48.806Z,3.20
2018-08-24T02:15:48.772Z,4.20
2018-08-24T02:16:48.738Z,2.20
2018-08-24T02:17:48.706Z,2.10
2018-08-24T02:18:48.666Z,2.50
2018-08-24T02:19:48.632Z,2.90
2018-08-24T02:20:48.600Z,3.00
2018-08-24T02:21:48.569Z,2.90
2018-08-24T02:22:48.532Z,3.80
2018-08-24T02:23:48.498Z,4.30
2018-08-24T02:24:48.464Z,3.70
2018-08-24T02:25:48.428Z,3.90
2018-08-24T02:26:48.400Z,4.30
2018-08-24T02:27:48.365Z,3.30
2018-08-24T02:28:48.331Z,4.60
2018-08-24T02:29:48.305Z,4.20
2018-08-24T02:30:48.261Z,2.90
2018-08-24T02:31:48.229Z,2.90
2018-08-24T02:32:48.199Z,4.60
2018-08-24T02:33:48.164Z,2.80
2018-08-24T02:34:48.137Z,3.60
2018-08-24T02:35:48.099Z,4.00
2018-08-24T02:36:48.062Z,4.20
2018-08-24T02:37:48.023Z,3.40
2018-08-24T02:38:47.995Z,3.70
2018-08-24T02:39:47.959Z,3.60
2018-08-24T02:40:47.928Z,4.60
2018-08-24T02:41:47.893Z,3.90
2018-08-24T02:42:47.852Z,4.20
2018-08-24T02:43:47.820Z,3.80
2018-08-24T02:44:47.785Z,4.20
2018-08-24T02:45:47.751Z,4.10
2018-08-24T02:46:47.724Z,3.90
2018-08-24T02:47:47.686Z,3.20
2018-08-24T02:48:47.652Z,3.40
2018-08-24T02:49:47.620Z,3.90
2018-08-24T02:50:47.582Z,3.80
2018-08-24T02:51:47.575Z,5.80
2018-08-24T02:52:47.521Z,5.60
2018-08-24T02:53:47.488Z,4.40
2018-08-24T02:54:47.448Z,5.00
2018-08-24T02:55:47.412Z,6.10
2018-08-24T02:56:47.378Z,4.10
2018-08-24T02:57:47.345Z,3.30
2018-08-24T02:58:47.314Z,3.80
2018-08-24T02:59:47.279Z,3.80
2018-08-24T03:00:47.244Z,6.20
2018-08-24T03:01:47.220Z,6.40
2018-08-24T03:02:47.180Z,3.90
2018-08-24T03:03:47.142Z,5.40
2018-08-24T03:04:47.105Z,4.50
2018-08-24T03:05:47.070Z,3.90
2018-08-24T03:06:47.043Z,4.10
2018-08-24T03:07:47.006Z,4.00
2018-08-24T03:08:46.968Z,4.20
2018-08-24T03:09:46.936Z,5.00
2018-08-24T03:10:46.905Z,4.70
2018-08-24T03:11:46.874Z,5.10
2018-08-24T03:12:46.840Z,3.40
2018-08-24T03:13:46.807Z,3.80
2018-08-24T03:14:46.763Z,5.10
2018-08-24T03:15:46.731Z,4.80
2018-08-24T03:16:46.696Z,4.80
2018-08-24T03:17:46.663Z,3.70
2018-08-24T03:18:46.631Z,4.30
2018-08-24T03:19:46.596Z,3.80
2018-08-24T03:20:46.563Z,5.10
2018-08-24T03:21:46.530Z,4.60
2018-08-24T03:22:46.489Z,3.80
2018-08-24T03:23:46.464Z,4.90
2018-08-24T03:24:46.423Z,3.90
2018-08-24T03:25:46.393Z,4.80
2018-08-24T03:26:46.352Z,3.40
2018-08-24T03:27:46.320Z,4.90
2018-08-24T03:28:46.286Z,4.50
2018-08-24T03:29:46.251Z,2.90
2018-08-24T03:30:46.228Z,4.60
2018-08-24T03:31:46.188Z,3.90
2018-08-24T03:32:46.181Z,3.80
2018-08-24T03:33:46.119Z,3.10
2018-08-24T03:34:46.078Z,2.90
2018-08-24T03:35:46.047Z,3.30
2018-08-24T03:36:46.012Z,3.80
2018-08-24T03:37:45.977Z,4.30
2018-08-24T03:38:45.948Z,3.50
2018-08-24T03:39:45.912Z,5.60
2018-08-24T03:40:45.874Z,4.20
2018-08-24T03:41:45.841Z,4.00
2018-08-24T03:42:45.811Z,3.50
2018-08-24T03:43:45.777Z,7.00
2018-08-24T03:44:45.740Z,5.20
2018-08-24T03:45:45.781Z,3.20
2018-08-24T03:46:45.677Z,3.60
2018-08-24T03:47:45.649Z,3.10
2018-08-24T03:48:45.600Z,3.10
2018-08-24T03:49:45.616Z,2.70
2018-08-24T03:50:45.539Z,5.00
2018-08-24T03:51:45.500Z,3.60
2018-08-24T03:52:45.487Z,7.40
2018-08-24T03:53:45.434Z,2.80
2018-08-24T04:07:27.396Z,2.70
2018-08-24T04:08:27.326Z,5.40
2018-08-24T04:09:27.289Z,6.50
2018-08-24T04:10:27.251Z,5.20
2018-08-24T04:11:27.215Z,5.20
2018-08-24T04:12:27.173Z,3.30
2018-08-24T04:13:27.139Z,3.00
2018-08-24T04:14:27.098Z,4.60
2018-08-24T04:15:27.068Z,4.50
2018-08-24T04:16:27.020Z,3.70
2018-08-24T04:17:26.986Z,4.30
2018-08-24T04:18:26.955Z,5.30
2018-08-24T04:19:27.042Z,3.70
2018-08-24T04:20:26.883Z,5.20
2018-08-24T04:21:26.852Z,4.20
2018-08-24T04:22:26.808Z,4.70
2018-08-24T04:23:26.770Z,4.40
2018-08-24T04:24:26.740Z,4.50
2018-08-24T04:25:26.705Z,6.70
2018-08-24T04:26:26.670Z,5.20
2018-08-24T04:27:26.636Z,4.80
2018-08-24T04:28:26.598Z,4.40
2018-08-24T04:29:26.563Z,5.60
2018-08-24T04:30:26.529Z,5.80
2018-08-24T04:31:26.497Z,4.50
2018-08-24T04:32:26.462Z,6.20
2018-08-24T04:33:26.422Z,3.60
2018-08-24T04:34:26.393Z,7.30
2018-08-24T04:35:26.354Z,5.70
2018-08-24T04:36:26.314Z,5.10
2018-08-24T04:37:26.291Z,4.40
2018-08-24T04:38:26.247Z,4.60
2018-08-24T04:39:26.215Z,6.50
2018-08-24T04:40:26.255Z,5.30
2018-08-24T04:41:26.143Z,5.30
2018-08-24T04:42:26.109Z,7.00
2018-08-24T04:43:26.074Z,8.10
2018-08-24T04:44:26.040Z,7.90
2018-08-24T04:45:26.049Z,9.60
2018-08-24T04:46:25.970Z,6.40
2018-08-24T04:47:25.936Z,7.10
2018-08-24T04:48:25.895Z,10.60
2018-08-24T04:49:25.863Z,8.60
2018-08-24T04:50:25.830Z,8.90
2018-08-24T04:51:25.827Z,9.50
2018-08-24T04:52:25.763Z,11.00
2018-08-24T04:53:25.728Z,9.00
2018-08-24T04:54:25.691Z,8.70
2018-08-24T04:55:25.653Z,9.80
2018-08-24T04:56:25.646Z,8.90
2018-08-24T04:57:25.587Z,7.30
2018-08-24T04:58:25.602Z,9.10
2018-08-24T04:59:25.520Z,10.10
2018-08-24T05:00:25.483Z,8.00
2018-08-24T05:01:25.446Z,9.50
2018-08-24T05:02:25.411Z,9.10
2018-08-24T05:03:25.374Z,8.90
2018-08-24T05:04:25.345Z,9.00
2018-08-24T05:05:25.312Z,11.10
2018-08-24T05:06:25.278Z,11.00
2018-08-24T05:07:25.243Z,11.10
2018-08-24T05:08:25.206Z,9.90
2018-08-24T05:09:25.231Z,8.90
2018-08-24T05:10:25.135Z,11.90
2018-08-24T05:11:25.106Z,11.70
2018-08-24T05:12:25.065Z,12.40
2018-08-24T05:13:25.031Z,9.10
2018-08-24T05:14:24.996Z,8.80
2018-08-24T05:15:24.959Z,8.90
2018-08-24T05:16:24.930Z,9.50
2018-08-24T05:17:24.895Z,10.60
2018-08-24T05:18:24.859Z,10.60
2018-08-24T05:19:24.827Z,12.10
2018-08-24T05:20:24.794Z,9.60
2018-08-24T05:21:24.767Z,10.30
2018-08-24T05:22:24.725Z,10.40
2018-08-24T05:23:24.682Z,12.20
2018-08-24T05:24:24.654Z,9.60
2018-08-24T05:25:24.617Z,11.00
2018-08-24T05:26:24.582Z,11.60
2018-08-24T05:27:24.550Z,8.20
2018-08-24T05:28:24.516Z,9.30
2018-08-24T05:29:24.479Z,12.30
2018-08-24T05:30:24.447Z,9.90
2018-08-24T05:31:24.414Z,12.50
2018-08-24T05:32:24.371Z,9.80
2018-08-24T05:33:24.344Z,9.70
2018-08-24T05:34:24.307Z,7.80
2018-08-24T05:35:24.270Z,12.80
2018-08-24T05:36:24.242Z,8.90
2018-08-24T05:37:24.203Z,10.20
2018-08-24T05:38:24.169Z,9.80
2018-08-24T05:39:24.136Z,10.80
2018-08-24T05:40:24.096Z,9.20
2018-08-24T05:41:24.131Z,9.90
2018-08-24T05:42:24.028Z,11.00
2018-08-24T05:43:24.001Z,8.50
2018-08-24T05:44:23.958Z,8.90
2018-08-24T05:45:23.931Z,9.80
2018-08-24T05:46:23.892Z,11.00
2018-08-24T05:47:23.858Z,9.60
2018-08-24T05:48:23.828Z,12.60
2018-08-24T05:49:23.792Z,7.90
2018-08-24T05:50:23.761Z,11.30
2018-08-24T05:51:23.725Z,9.30
2018-08-24T05:52:23.682Z,8.30
2018-08-24T05:53:23.651Z,11.80
2018-08-24T05:54:23.616Z,11.20
2018-08-24T05:55:23.580Z,9.60
2018-08-24T05:56:23.554Z,10.10
2018-08-24T05:57:23.515Z,8.60
2018-08-24T05:58:23.479Z,10.20
2018-08-24T05:59:23.443Z,11.80
2018-08-24T06:00:23.416Z,11.70
2018-08-24T06:01:23.378Z,10.90
2018-08-24T06:02:23.344Z,10.50
2018-08-24T06:03:23.311Z,11.00
2018-08-24T06:04:23.274Z,9.60
2018-08-24T06:05:23.240Z,9.20
2018-08-24T06:06:23.205Z,9.70
2018-08-24T06:07:23.177Z,10.30
2018-08-24T06:08:23.146Z,10.60
2018-08-24T06:09:23.103Z,9.80
2018-08-24T06:10:23.069Z,12.80
2018-08-24T06:11:23.055Z,10.80
2018-08-24T06:12:22.996Z,9.90
2018-08-24T06:13:22.964Z,10.10
2018-08-24T06:14:22.932Z,11.20
2018-08-24T06:15:22.902Z,10.70
2018-08-24T06:16:22.858Z,9.90
2018-08-24T06:17:22.828Z,10.30
2018-08-24T06:18:22.793Z,9.40
2018-08-24T06:19:22.758Z,12.10
2018-08-24T06:20:22.729Z,10.20
2018-08-24T06:21:22.693Z,10.80
2018-08-24T06:22:22.661Z,9.80
2018-08-24T06:23:22.620Z,12.60
2018-08-24T06:24:22.604Z,12.20
2018-08-24T06:25:22.555Z,11.10
2018-08-24T06:26:22.526Z,11.30
2018-08-24T06:27:22.491Z,10.00
2018-08-24T06:28:22.448Z,11.10
2018-08-24T06:29:22.426Z,10.90
2018-08-24T06:30:22.390Z,12.40
2018-08-24T06:31:22.353Z,10.90
2018-08-24T06:32:22.312Z,14.00
2018-08-24T06:33:22.279Z,13.60
2018-08-24T06:34:22.246Z,12.50
2018-08-24T06:35:22.210Z,11.80
2018-08-24T06:36:22.181Z,11.80
2018-08-24T06:37:22.148Z,10.90
2018-08-24T06:38:22.120Z,11.00
2018-08-24T06:39:22.081Z,10.90
2018-08-24T06:40:22.042Z,11.60
2018-08-24T06:41:22.011Z,12.10
2018-08-24T06:42:21.973Z,9.50
2018-08-24T06:43:21.939Z,9.80
2018-08-24T06:44:21.909Z,11.50
2018-08-24T06:45:21.876Z,10.40
2018-08-24T06:46:21.837Z,12.10
2018-08-24T06:47:21.921Z,13.70
2018-08-24T06:48:21.773Z,11.90
2018-08-24T06:49:21.737Z,9.90
2018-08-24T06:50:21.704Z,11.20
2018-08-24T06:51:21.672Z,12.80
2018-08-24T06:52:21.631Z,14.70
2018-08-24T06:53:21.702Z,11.70
2018-08-24T06:54:21.568Z,12.90
2018-08-24T06:55:21.532Z,11.00
2018-08-24T06:56:21.501Z,13.00
2018-08-24T06:57:21.468Z,11.50
2018-08-24T06:58:21.432Z,11.30
2018-08-24T06:59:21.400Z,12.50
2018-08-24T07:00:21.361Z,15.00
2018-08-24T07:01:21.334Z,13.50
2018-08-24T07:02:21.305Z,15.40
2018-08-24T07:03:21.275Z,14.00
2018-08-24T07:04:21.226Z,14.90
2018-08-24T07:05:21.192Z,17.10
2018-08-24T07:06:21.256Z,14.60
2018-08-24T07:07:21.122Z,20.80
2018-08-24T07:08:21.094Z,14.90
2018-08-24T07:09:21.057Z,15.20
2018-08-24T07:10:21.025Z,15.60
2018-08-24T07:11:20.993Z,16.40
2018-08-24T07:12:20.953Z,16.10
2018-08-24T07:13:20.919Z,15.60
2018-08-24T07:14:20.884Z,19.80
2018-08-24T07:15:20.850Z,15.70
2018-08-24T07:16:20.828Z,14.60
2018-08-24T07:17:20.787Z,16.60
2018-08-24T07:18:20.750Z,14.90
2018-08-24T07:19:20.717Z,17.50
2018-08-24T07:20:20.686Z,12.60
2018-08-24T07:21:20.656Z,16.30
2018-08-24T07:22:20.614Z,15.60
2018-08-24T07:23:20.589Z,15.20
2018-08-24T07:24:20.541Z,18.20
2018-08-24T07:25:20.510Z,13.80
2018-08-24T07:26:20.480Z,17.60
2018-08-24T07:27:20.441Z,13.60
2018-08-24T07:28:20.412Z,11.90
2018-08-24T07:29:20.377Z,13.30
2018-08-24T07:30:20.342Z,15.30
2018-08-24T07:31:20.313Z,14.10
2018-08-24T07:32:20.270Z,14.60
2018-08-24T07:33:20.237Z,15.30
2018-08-24T07:34:20.206Z,14.50
2018-08-24T07:35:20.174Z,15.80
2018-08-24T07:36:20.135Z,18.20
2018-08-24T07:37:20.103Z,14.30
2018-08-24T07:38:20.070Z,13.80
2018-08-24T07:39:20.033Z,15.30
2018-08-24T07:40:20.007Z,17.40
2018-08-24T07:41:19.985Z,12.20
2018-08-24T07:42:19.934Z,14.60
2018-08-24T07:43:19.921Z,17.60
2018-08-24T07:44:19.861Z,13.40
2018-08-24T07:45:19.830Z,13.00
2018-08-24T07:46:19.799Z,15.50
2018-08-24T07:47:19.767Z,14.40
2018-08-24T07:48:19.732Z,16.00
2018-08-24T07:49:19.695Z,14.60
2018-08-24T07:50:19.663Z,13.00
2018-08-24T07:51:19.629Z,16.60
2018-08-24T07:52:19.598Z,13.10
2018-08-24T07:53:19.560Z,14.50
2018-08-24T07:54:19.526Z,12.60
2018-08-24T07:55:19.497Z,14.40
2018-08-24T07:56:19.457Z,12.80
2018-08-24T07:57:19.423Z,13.40
2018-08-24T07:58:19.391Z,14.70
2018-08-24T07:59:19.358Z,15.20
2018-08-24T08:00:19.328Z,13.20
2018-08-24T08:01:19.296Z,11.10
2018-08-24T08:02:19.255Z,13.30
2018-08-24T08:03:19.224Z,10.30
2018-08-24T08:04:19.184Z,10.80
2018-08-24T08:05:19.197Z,14.10
2018-08-24T08:06:19.122Z,11.10
2018-08-24T08:07:19.088Z,12.30
2018-08-24T08:08:19.048Z,10.60
2018-08-24T08:09:19.016Z,11.80
2018-08-24T08:10:18.984Z,12.80
2018-08-24T08:11:18.948Z,13.30
2018-08-24T08:12:18.917Z,14.00
2018-08-24T08:13:18.883Z,12.00
2018-08-24T08:14:18.848Z,10.70
2018-08-24T08:15:18.820Z,11.40
2018-08-24T08:16:18.778Z,11.50
2018-08-24T08:17:18.746Z,11.00
2018-08-24T08:18:18.778Z,13.80
2018-08-24T08:19:18.678Z,14.30
2018-08-24T08:20:18.654Z,11.00
2018-08-24T08:21:18.614Z,8.50
2018-08-24T08:22:18.584Z,9.80
2018-08-24T08:23:18.548Z,11.50
2018-08-24T08:24:18.520Z,10.20
2018-08-24T08:25:18.485Z,12.20
2018-08-24T08:26:18.445Z,10.10
2018-08-24T08:27:18.413Z,10.10
2018-08-24T08:28:18.374Z,11.50
2018-08-24T08:29:18.342Z,11.50
2018-08-24T08:30:18.308Z,8.10
2018-08-24T08:31:18.276Z,10.60
2018-08-24T08:32:18.246Z,10.90
2018-08-24T08:33:18.212Z,9.20
2018-08-24T08:34:18.175Z,10.10
2018-08-24T08:35:18.145Z,10.60
2018-08-24T08:36:18.106Z,10.30
2018-08-24T08:37:18.072Z,7.80
2018-08-24T08:38:18.042Z,11.20
2018-08-24T08:39:18.012Z,10.40
2018-08-24T08:40:17.971Z,8.20
2018-08-24T08:41:17.938Z,10.50
2018-08-24T08:42:17.906Z,11.40
2018-08-24T08:43:17.870Z,12.60
2018-08-24T08:44:17.847Z,9.50
2018-08-24T08:45:17.858Z,14.20
2018-08-24T08:46:17.775Z,8.50
2018-08-24T08:47:17.741Z,9.70
2018-08-24T08:48:17.704Z,8.70
2018-08-24T08:49:17.673Z,8.40
2018-08-24T08:50:17.637Z,9.10
2018-08-24T08:51:17.606Z,9.30
2018-08-24T08:52:17.579Z,12.30
2018-08-24T08:53:17.589Z,9.00
2018-08-24T08:54:17.508Z,13.80
2018-08-24T08:55:17.474Z,11.50
2018-08-24T08:56:17.448Z,11.30
2018-08-24T08:57:17.413Z,12.10
2018-08-24T08:58:17.380Z,12.70
2018-08-24T08:59:17.347Z,14.10
2018-08-24T09:00:17.304Z,9.70
2018-08-24T09:01:17.271Z,8.10
2018-08-24T09:02:17.239Z,8.60
2018-08-24T09:03:17.205Z,8.20
2018-08-24T09:04:17.176Z,11.50
2018-08-24T09:05:17.141Z,8.20
2018-08-24T09:06:17.147Z,8.40
2018-08-24T09:07:17.077Z,8.70
2018-08-24T09:08:17.039Z,9.10
2018-08-24T09:09:17.005Z,9.10
2018-08-24T09:10:16.977Z,9.10
2018-08-24T09:11:16.947Z,8.50
2018-08-24T09:12:16.901Z,9.30
2018-08-24T09:13:16.874Z,10.50
2018-08-24T09:14:16.840Z,10.20
2018-08-24T09:15:16.804Z,8.50
2018-08-24T09:16:16.777Z,9.30
2018-08-24T09:17:16.743Z,9.50
2018-08-24T09:18:16.710Z,8.40
2018-08-24T09:19:16.677Z,8.40
2018-08-24T09:20:16.638Z,8.80
2018-08-24T09:21:16.615Z,10.50
2018-08-24T09:22:16.578Z,9.90
2018-08-24T09:23:16.542Z,11.70
2018-08-24T09:24:16.513Z,10.50
2018-08-24T09:25:16.483Z,10.50
2018-08-24T09:26:16.444Z,8.20
2018-08-24T09:27:16.409Z,10.70
2018-08-24T09:28:16.386Z,7.80
2018-08-24T09:29:16.350Z,9.30
2018-08-24T09:30:16.317Z,8.20
2018-08-24T09:31:16.294Z,11.70
2018-08-24T09:32:16.247Z,10.10
2018-08-24T09:33:16.215Z,11.30
2018-08-24T09:34:16.182Z,7.50
2018-08-24T09:35:16.147Z,7.20
2018-08-24T09:36:16.119Z,8.00
2018-08-24T09:37:16.086Z,6.50
2018-08-24T09:38:16.052Z,11.10
2018-08-24T09:39:16.024Z,7.80
2018-08-24T09:40:15.985Z,7.90
2018-08-24T09:41:15.952Z,8.80
2018-08-24T09:42:15.923Z,8.50
2018-08-24T09:43:15.898Z,10.10
2018-08-24T09:44:15.850Z,8.60
2018-08-24T09:45:15.819Z,8.50
2018-08-24T09:46:15.788Z,8.50
2018-08-24T09:47:15.750Z,9.50
2018-08-24T09:48:15.725Z,8.60
2018-08-24T09:49:15.773Z,13.70
2018-08-24T09:50:15.660Z,10.70
2018-08-24T09:51:15.623Z,10.40
2018-08-24T09:52:15.585Z,9.60
2018-08-24T09:53:15.555Z,9.50
2018-08-24T09:54:15.521Z,9.60
2018-08-24T09:55:15.487Z,8.00
2018-08-24T09:56:15.459Z,10.80
2018-08-24T09:57:15.425Z,7.90
2018-08-24T09:58:15.389Z,8.40
2018-08-24T09:59:15.353Z,7.50
2018-08-24T10:00:15.328Z,6.90
2018-08-24T10:01:15.293Z,10.10
2018-08-24T10:02:15.260Z,7.00
2018-08-24T10:03:15.230Z,8.90
2018-08-24T10:04:15.194Z,7.70
2018-08-24T10:05:15.208Z,7.60
2018-08-24T10:06:15.158Z,8.60
2018-08-24T10:21:03.013Z,5.80
2018-08-24T10:22:02.934Z,7.20
2018-08-24T10:23:02.951Z,7.50
2018-08-24T10:24:02.861Z,10.10
2018-08-24T10:25:02.834Z,9.10
2018-08-24T10:26:02.785Z,7.20
2018-08-24T10:27:02.751Z,6.60
2018-08-24T10:28:02.718Z,9.10
2018-08-24T10:29:02.687Z,11.40
2018-08-24T10:30:02.654Z,8.30
2018-08-24T10:31:02.618Z,8.90
2018-08-24T10:32:02.592Z,6.90
2018-08-24T10:33:02.547Z,7.80
2018-08-24T10:34:02.509Z,10.10
2018-08-24T10:35:02.476Z,7.30
2018-08-24T10:36:02.446Z,11.20
2018-08-24T10:37:02.427Z,6.90
2018-08-24T10:38:02.399Z,8.70
2018-08-24T10:39:02.407Z,6.80
2018-08-24T10:40:02.310Z,7.70
2018-08-24T10:41:02.331Z,8.30
2018-08-24T10:42:02.248Z,6.80
2018-08-24T10:43:02.214Z,7.60
2018-08-24T10:44:02.175Z,6.90
2018-08-24T10:45:02.151Z,9.80
2018-08-24T10:46:02.108Z,8.90
2018-08-24T10:47:02.076Z,11.90
2018-08-24T10:48:02.044Z,11.10
2018-08-24T10:49:02.014Z,7.90
2018-08-24T10:50:01.984Z,9.90
2018-08-24T10:51:01.950Z,7.50
2018-08-24T10:52:01.915Z,7.10
2018-08-24T10:53:01.945Z,8.10
2018-08-24T10:54:01.841Z,8.70
2018-08-24T10:55:01.888Z,8.30
2018-08-24T10:56:01.912Z,9.80
2018-08-24T10:57:01.752Z,9.40
2018-08-24T10:58:01.710Z,9.10
2018-08-24T10:59:01.681Z,7.20
2018-08-24T11:00:01.650Z,9.10
2018-08-24T11:01:01.619Z,7.50
2018-08-24T11:02:01.631Z,8.80
2018-08-24T11:03:01.571Z,5.60
2018-08-24T11:04:01.517Z,9.50
2018-08-24T11:05:01.487Z,7.40
2018-08-24T11:06:01.451Z,7.80
2018-08-24T11:07:01.417Z,6.50
2018-08-24T11:08:01.388Z,6.50
2018-08-24T11:09:01.360Z,7.40
2018-08-24T11:10:01.326Z,5.00
2018-08-24T11:11:01.288Z,7.50
2018-08-24T11:12:01.254Z,7.40
2018-08-24T11:13:01.221Z,5.10
2018-08-24T11:14:01.199Z,4.80
2018-08-24T11:15:01.159Z,5.40
2018-08-24T11:16:01.127Z,7.30
2018-08-24T11:17:01.089Z,6.60
2018-08-24T11:18:01.056Z,4.50
2018-08-24T11:19:01.026Z,5.90
2018-08-24T11:20:00.998Z,5.10
2018-08-24T11:21:00.965Z,7.10
2018-08-24T11:22:00.935Z,6.10
2018-08-24T11:23:00.901Z,6.10
2018-08-24T11:24:00.861Z,4.40
2018-08-24T11:25:00.834Z,5.40
2018-08-24T11:26:00.831Z,7.50
2018-08-24T11:27:00.843Z,4.90
2018-08-24T11:28:00.738Z,5.80
2018-08-24T11:29:00.705Z,5.90
2018-08-24T11:30:00.666Z,5.10
2018-08-24T11:31:00.637Z,6.50
2018-08-24T11:32:00.604Z,7.00
2018-08-24T11:33:00.588Z,5.50
2018-08-24T11:34:00.558Z,3.90
2018-08-24T11:35:00.508Z,6.50
2018-08-24T11:36:00.490Z,8.10
2018-08-24T11:37:00.441Z,5.10
2018-08-24T11:38:00.428Z,6.20
2018-08-24T11:39:00.377Z,6.20
2018-08-24T11:40:00.348Z,6.70
2018-08-24T11:41:00.322Z,6.00
2018-08-24T11:42:00.328Z,5.50
2018-08-24T11:43:00.253Z,6.20
2018-08-24T11:44:00.217Z,6.20
2018-08-24T11:45:00.188Z,5.90
2018-08-24T11:46:00.193Z,8.00
2018-08-24T11:47:00.125Z,5.00
2018-08-24T11:48:00.164Z,5.30
2018-08-24T11:49:00.056Z,5.80
2018-08-24T11:50:00.027Z,5.40
2018-08-24T11:51:00.000Z,5.90
2018-08-24T11:51:59.965Z,4.60
2018-08-24T11:52:59.933Z,8.70
2018-08-24T11:53:59.904Z,6.90
2018-08-24T11:54:59.868Z,7.90
2018-08-24T11:55:59.842Z,9.40
2018-08-24T11:56:59.803Z,6.30
2018-08-24T11:57:59.771Z,6.10
2018-08-24T11:58:59.739Z,8.00
2018-08-24T11:59:59.716Z,7.20
2018-08-24T12:00:59.678Z,4.70
2018-08-24T12:01:59.643Z,4.80
2018-08-24T12:02:59.610Z,5.70
2018-08-24T12:03:59.582Z,6.00
2018-08-24T12:04:59.551Z,4.30
2018-08-24T12:05:59.518Z,5.10
2018-08-24T12:06:59.488Z,6.20
2018-08-24T12:07:59.604Z,5.70
2018-08-24T12:08:59.418Z,6.10
2018-08-24T12:09:59.388Z,6.20
2018-08-24T12:10:59.356Z,6.20
2018-08-24T12:11:59.365Z,6.80
2018-08-24T12:12:59.299Z,6.10
2018-08-24T12:13:59.347Z,7.30
2018-08-24T12:14:59.231Z,8.30
2018-08-24T12:15:59.198Z,8.50
2018-08-24T12:16:59.165Z,6.80
2018-08-24T12:17:59.147Z,6.80
2018-08-24T12:18:59.103Z,7.50
2018-08-24T12:19:59.072Z,5.10
2018-08-24T12:20:59.038Z,4.90
2018-08-24T12:21:59.007Z,9.70
2018-08-24T12:22:58.979Z,5.60
2018-08-24T12:23:58.951Z,10.70
2018-08-24T12:24:58.917Z,6.30
2018-08-24T12:25:58.882Z,8.40
2018-08-24T12:26:58.903Z,6.10
2018-08-24T12:27:58.819Z,7.60
2018-08-24T12:28:58.788Z,6.20
2018-08-24T12:29:58.749Z,7.60
2018-08-24T12:30:58.732Z,6.20
2018-08-24T12:31:58.688Z,7.30
2018-08-24T12:32:58.659Z,5.80
2018-08-24T12:33:58.624Z,8.00
2018-08-24T12:34:58.591Z,6.50
2018-08-24T12:35:58.560Z,7.90
2018-08-24T12:36:58.544Z,6.40
2018-08-24T12:37:58.553Z,6.20
2018-08-24T12:38:58.465Z,6.10
2018-08-24T12:39:58.454Z,6.40
2018-08-24T12:40:58.399Z,6.00
2018-08-24T12:41:58.371Z,4.10
2018-08-24T12:42:58.336Z,5.30
2018-08-24T12:43:58.318Z,5.80
2018-08-24T12:44:58.280Z,6.70
2018-08-24T12:45:58.253Z,4.80
2018-08-24T12:46:58.211Z,6.00
2018-08-24T12:47:58.181Z,5.70
2018-08-24T12:48:58.147Z,5.60
2018-08-24T12:49:58.120Z,5.00
2018-08-24T12:50:58.084Z,6.00
2018-08-24T12:51:58.081Z,5.30
2018-08-24T12:52:58.019Z,4.90
2018-08-24T12:53:57.986Z,5.10
2018-08-24T12:54:57.956Z,7.10
2018-08-24T12:55:57.925Z,7.50
2018-08-24T12:56:57.895Z,8.60
2018-08-24T12:57:57.868Z,5.20
2018-08-24T12:58:57.829Z,5.20
2018-08-24T12:59:57.868Z,5.80
2018-08-24T13:00:57.764Z,5.60
2018-08-24T13:01:57.730Z,7.00
2018-08-24T13:02:57.704Z,3.60
2018-08-24T13:03:57.673Z,5.90
2018-08-24T13:04:57.642Z,5.70
2018-08-24T13:05:57.603Z,7.80
2018-08-24T13:06:57.574Z,6.80
2018-08-24T13:07:57.548Z,5.50
2018-08-24T13:08:57.517Z,6.30
2018-08-24T13:09:57.485Z,5.80
2018-08-24T13:10:57.450Z,5.50
2018-08-24T13:11:57.419Z,5.90
2018-08-24T13:12:57.386Z,5.00
2018-08-24T13:13:57.360Z,5.00
2018-08-24T13:14:57.322Z,5.60
2018-08-24T13:15:57.300Z,5.70
2018-08-24T13:16:57.263Z,7.40
2018-08-24T13:17:57.233Z,5.80
2018-08-24T13:18:57.197Z,4.50
2018-08-24T13:19:57.164Z,6.10
2018-08-24T13:20:57.131Z,5.80
2018-08-24T13:21:57.111Z,3.80
2018-08-24T13:22:57.072Z,5.40
2018-08-24T13:23:57.037Z,4.90
2018-08-24T13:24:57.004Z,5.00
2018-08-24T13:25:56.980Z,3.90
2018-08-24T13:26:56.942Z,5.30
2018-08-24T13:27:56.924Z,3.90
2018-08-24T13:28:56.882Z,2.80
2018-08-24T13:29:56.852Z,4.60
2018-08-24T13:30:56.820Z,4.00
2018-08-24T13:31:56.786Z,5.10
2018-08-24T13:32:56.752Z,5.30
2018-08-24T13:33:56.724Z,4.60
2018-08-24T13:34:56.694Z,4.50
2018-08-24T13:35:56.664Z,4.30
2018-08-24T13:36:56.633Z,5.00
2018-08-24T13:37:56.596Z,5.50